This is the latest recevied weather packets stored in our database for station/object OE3APM-13. If no packets are shown the sender has not sent any weather packets the latest 1 day(s).
| Time | Temp. | Humidity | Pressure | Rain* | Wind** | Luminosity | Snow |
|---|---|---|---|---|---|---|---|
| 1778014142 | 17.78° C | 59% | 1005.5 hPa | 0 mm | 4.02 m/s, 302° | 0 W/m² | - |
| 1778013842 | 17.78° C | 58% | 1005.2 hPa | 0 mm | 3.13 m/s, 225° | 0 W/m² | - |
| 1778013541 | 17.78° C | 58% | 1005.2 hPa | 0 mm | 3.13 m/s, 243° | 0 W/m² | - |
| 1778013241 | 17.78° C | 58% | 1005.1 hPa | 0 mm | 3.13 m/s, 239° | 0 W/m² | - |
| 1778012941 | 17.78° C | 58% | 1005.1 hPa | 0 mm | 3.13 m/s, 214° | 0 W/m² | - |
| 1778012641 | 17.78° C | 58% | 1005 hPa | 0 mm | 3.13 m/s, 223° | 0 W/m² | - |
| 1778012341 | 17.78° C | 59% | 1004.9 hPa | 0 mm | 2.24 m/s, 250° | 0 W/m² | - |
| 1778012036 | 17.78° C | 60% | 1004.9 hPa | 0 mm | 1.79 m/s, 207° | 0 W/m² | - |
| 1778011730 | 17.22° C | 60% | 1004.8 hPa | 0 mm | 1.79 m/s, 267° | 0 W/m² | - |
| 1778011430 | 17.22° C | 60% | 1004.7 hPa | 0 mm | 0.89 m/s, 259° | 0 W/m² | - |
| 1778011128 | 17.22° C | 64% | 1004.5 hPa | 0 mm | 0 m/s | 0 W/m² | - |
| 1778010828 | 17.78° C | 62% | 1004.2 hPa | 0 mm | 0 m/s | 0 W/m² | - |
| 1778010526 | 17.78° C | 63% | 1004.1 hPa | 0 mm | 0 m/s | 0 W/m² | - |
| 1778010223 | 17.78° C | 62% | 1004.1 hPa | 0 mm | 0 m/s | 0 W/m² | - |
| 1778009923 | 17.78° C | 61% | 1004 hPa | 0 mm | 0 m/s | 0 W/m² | - |
| 1778009620 | 17.78° C | 62% | 1003.9 hPa | 0 mm | 0 m/s | 0 W/m² | - |
| 1778009320 | 17.78° C | 62% | 1003.8 hPa | 0 mm | 0 m/s | 0 W/m² | - |
| 1778009020 | 18.33° C | 63% | 1003.8 hPa | 0 mm | 0.45 m/s, 71° | 0 W/m² | - |
| 1778008718 | 18.33° C | 62% | 1003.8 hPa | 0 mm | 0.45 m/s, 71° | 0 W/m² | - |
| 1778008417 | 18.33° C | 58% | 1003.7 hPa | 0 mm | 0.45 m/s, 26° | 0 W/m² | - |
| 1778008117 | 18.33° C | 58% | 1003.5 hPa | 0 mm | 0.45 m/s, 26° | 0 W/m² | - |
| 1778007816 | 18.89° C | 59% | 1003.5 hPa | 0 mm | 0 m/s | 0 W/m² | - |
| 1778007515 | 18.89° C | 57% | 1003.5 hPa | 0 mm | 0 m/s | 0 W/m² | - |
| 1778007213 | 18.89° C | 57% | 1003.4 hPa | 0 mm | 0 m/s | 0 W/m² | - |
| 1778006911 | 19.44° C | 55% | 1003.4 hPa | 0 mm | 0 m/s | 0 W/m² | - |
* Rain latest hour (hover to see other rain measurements)
** Current wind speed in m/s (hover to see current wind gust speed)